createdAt,value
2022-08-17T00:01:30.109Z,57.05
2022-08-17T00:04:09.270Z,57.75
2022-08-17T00:06:37.248Z,58.20
2022-08-17T00:09:05.550Z,58.35
2022-08-17T00:11:34.434Z,58.06
2022-08-17T00:14:07.400Z,58.70
2022-08-17T00:16:56.572Z,58.69
2022-08-17T00:19:25.273Z,59.31
2022-08-17T00:22:32.032Z,60.11
2022-08-17T00:24:42.797Z,60.60
2022-08-17T00:27:09.208Z,61.08
2022-08-17T00:29:35.562Z,61.30
2022-08-17T00:33:13.692Z,60.41
2022-08-17T00:34:49.848Z,61.79
2022-08-17T00:37:16.427Z,61.19
2022-08-17T00:39:42.903Z,61.11
2022-08-17T00:42:17.816Z,61.27
2022-08-17T00:44:44.775Z,61.84
2022-08-17T00:47:11.149Z,61.79
2022-08-17T00:49:37.559Z,61.11
2022-08-17T00:52:15.250Z,60.19
2022-08-17T00:54:45.142Z,60.13
2022-08-17T00:57:17.484Z,61.50
2022-08-17T00:59:56.015Z,61.43
2022-08-17T01:02:34.230Z,62.26
2022-08-17T01:05:07.759Z,62.91
2022-08-17T01:07:34.537Z,63.33
2022-08-17T01:10:57.142Z,63.36
2022-08-17T01:12:56.743Z,63.52
2022-08-17T01:15:23.553Z,63.65
2022-08-17T01:17:50.236Z,63.98
2022-08-17T01:20:16.873Z,64.47
2022-08-17T01:22:43.451Z,64.34
2022-08-17T01:25:12.735Z,65.21
2022-08-17T01:27:41.263Z,64.90
2022-08-17T01:30:56.923Z,65.43
2022-08-17T01:32:57.215Z,65.30
2022-08-17T01:35:24.125Z,65.40
2022-08-17T01:37:50.601Z,65.00
2022-08-17T01:40:31.145Z,65.39
2022-08-17T01:43:03.374Z,66.06
2022-08-17T01:45:33.736Z,66.50
2022-08-17T01:48:00.909Z,66.24
2022-08-17T01:50:30.764Z,67.09
2022-08-17T01:53:04.403Z,67.28
2022-08-17T01:55:36.864Z,67.75
2022-08-17T01:58:03.550Z,67.27
2022-08-17T02:00:59.392Z,67.27
2022-08-17T02:03:17.168Z,67.61
2022-08-17T02:05:44.375Z,67.93
2022-08-17T02:08:20.182Z,68.08
2022-08-17T02:10:48.509Z,68.00
2022-08-17T02:13:15.222Z,67.87
2022-08-17T02:15:42.232Z,68.25
2022-08-17T02:18:10.232Z,68.50
2022-08-17T02:20:42.631Z,68.24
2022-08-17T02:23:11.771Z,68.42
2022-08-17T02:25:39.570Z,68.39
2022-08-17T02:28:06.041Z,68.94
2022-08-17T02:30:59.802Z,69.04
2022-08-17T02:33:19.987Z,69.27
2022-08-17T02:35:46.760Z,69.20
2022-08-17T02:38:13.192Z,70.03
2022-08-17T02:40:40.557Z,69.88
2022-08-17T02:43:08.813Z,70.02
2022-08-17T02:45:35.746Z,70.22
2022-08-17T02:48:03.169Z,70.41
2022-08-17T02:50:29.958Z,70.36
2022-08-17T02:53:02.109Z,70.50
2022-08-17T02:55:40.820Z,70.79
2022-08-17T02:58:10.457Z,70.57
2022-08-17T03:00:41.146Z,70.80
2022-08-17T03:03:08.634Z,70.70
2022-08-17T03:05:36.967Z,71.18
2022-08-17T03:08:06.095Z,71.75
2022-08-17T03:10:32.876Z,71.09
2022-08-17T03:12:59.694Z,71.46
2022-08-17T03:15:29.256Z,71.22
2022-08-17T03:17:56.692Z,71.37
2022-08-17T03:20:25.354Z,71.13
2022-08-17T03:22:55.010Z,71.29
2022-08-17T03:25:31.601Z,71.41
2022-08-17T03:28:00.882Z,71.36
2022-08-17T03:30:28.794Z,71.92
2022-08-17T03:32:57.811Z,72.24
2022-08-17T03:35:27.051Z,71.80
2022-08-17T03:38:00.825Z,71.76
2022-08-17T03:40:55.592Z,71.85
2022-08-17T03:43:15.980Z,71.99
2022-08-17T03:46:01.587Z,71.85
2022-08-17T03:48:46.339Z,71.69
2022-08-17T03:51:43.456Z,71.83
2022-08-17T03:54:29.605Z,72.33
2022-08-17T03:57:02.731Z,72.54
2022-08-17T03:59:29.328Z,72.87
2022-08-17T04:01:59.017Z,72.82
2022-08-17T04:04:27.568Z,72.46
2022-08-17T04:06:54.190Z,72.34
2022-08-17T04:09:20.695Z,72.03
2022-08-17T04:11:47.657Z,72.31
2022-08-17T04:14:14.217Z,72.33
2022-08-17T04:16:40.971Z,72.55
2022-08-17T04:19:07.479Z,72.62
2022-08-17T04:21:34.806Z,71.67
2022-08-17T04:24:02.192Z,71.81
2022-08-17T04:26:53.175Z,71.71
2022-08-17T04:29:16.973Z,71.78
2022-08-17T04:31:44.338Z,71.32
2022-08-17T04:34:11.691Z,71.87
2022-08-17T04:36:38.127Z,71.90
2022-08-17T04:39:05.225Z,72.14
2022-08-17T04:41:50.026Z,72.54
2022-08-17T04:44:37.050Z,72.55
2022-08-17T04:47:03.074Z,72.50
2022-08-17T04:49:29.515Z,72.02
2022-08-17T04:51:59.068Z,72.33
2022-08-17T04:54:29.073Z,72.31
2022-08-17T04:56:55.507Z,72.14
2022-08-17T04:59:22.364Z,71.84
2022-08-17T05:01:51.147Z,71.85
2022-08-17T05:04:35.171Z,71.90
2022-08-17T05:07:03.147Z,71.95
2022-08-17T05:09:29.701Z,71.89
2022-08-17T05:12:00.715Z,72.31
2022-08-17T05:14:32.355Z,72.42
2022-08-17T05:17:00.996Z,72.21
2022-08-17T05:19:28.484Z,72.63
2022-08-17T05:21:54.922Z,72.31
2022-08-17T05:24:39.043Z,72.22
2022-08-17T05:27:07.742Z,71.68
2022-08-17T05:29:35.484Z,71.87
2022-08-17T05:32:38.839Z,71.68
2022-08-17T05:35:00.446Z,72.10
2022-08-17T05:37:27.168Z,71.82
2022-08-17T05:39:54.190Z,71.64
2022-08-17T05:42:20.721Z,71.45
2022-08-17T05:44:47.120Z,71.03
2022-08-17T05:47:13.642Z,70.69
2022-08-17T05:49:40.122Z,70.51
2022-08-17T05:52:19.845Z,69.28
2022-08-17T05:55:35.449Z,70.31
2022-08-17T05:58:27.813Z,70.41
2022-08-17T06:01:16.434Z,70.32
2022-08-17T06:04:00.530Z,70.43
2022-08-17T06:06:45.501Z,69.81
2022-08-17T06:09:49.169Z,61.41
2022-08-17T06:12:37.137Z,60.04
2022-08-17T06:15:03.485Z,58.13
2022-08-17T06:17:31.053Z,57.94
2022-08-17T06:20:07.914Z,57.17
2022-08-17T06:22:38.183Z,56.65
2022-08-17T06:25:31.464Z,56.20
2022-08-17T06:28:04.381Z,55.62
2022-08-17T06:30:59.902Z,54.77
2022-08-17T06:33:34.232Z,55.01
2022-08-17T06:36:25.140Z,54.20
2022-08-17T06:39:02.958Z,54.99
2022-08-17T06:41:42.944Z,53.79
2022-08-17T06:44:49.917Z,54.20
2022-08-17T06:47:11.134Z,55.86
2022-08-17T06:50:02.762Z,53.68
2022-08-17T06:52:45.946Z,53.74
2022-08-17T06:55:24.580Z,54.00
2022-08-17T06:57:57.456Z,53.40
2022-08-17T07:00:29.577Z,53.78
2022-08-17T07:03:08.369Z,53.58
2022-08-17T07:05:44.202Z,54.87
2022-08-17T07:08:27.749Z,55.13
2022-08-17T07:11:00.472Z,55.05
2022-08-17T07:13:33.380Z,55.69
2022-08-17T07:16:11.399Z,54.94
2022-08-17T07:18:37.932Z,55.32
2022-08-17T07:21:17.552Z,55.13
2022-08-17T07:23:54.766Z,55.64
2022-08-17T07:26:24.283Z,54.89
2022-08-17T07:28:51.491Z,55.70
2022-08-17T07:31:17.914Z,54.65
2022-08-17T07:34:00.985Z,54.73
2022-08-17T07:36:33.604Z,54.97
2022-08-17T07:39:03.267Z,54.53
2022-08-17T07:41:57.632Z,54.02
2022-08-17T07:44:26.437Z,53.70
2022-08-17T07:47:12.853Z,55.22
2022-08-17T07:49:48.712Z,53.87
2022-08-17T07:52:51.931Z,54.58
2022-08-17T07:55:29.471Z,55.17
2022-08-17T07:57:58.014Z,54.43
2022-08-17T08:00:32.031Z,55.23
2022-08-17T08:03:13.420Z,56.63
2022-08-17T08:05:52.858Z,55.46
2022-08-17T08:08:25.554Z,55.14
2022-08-17T08:11:10.800Z,54.95
2022-08-17T08:13:42.806Z,55.78
2022-08-17T08:16:29.511Z,55.09
2022-08-17T08:19:01.442Z,55.38
2022-08-17T08:21:51.283Z,54.95
2022-08-17T08:24:36.636Z,55.25
2022-08-17T08:27:20.465Z,53.64
2022-08-17T08:30:10.178Z,53.68
2022-08-17T08:32:58.618Z,53.21
2022-08-17T08:35:33.619Z,55.29
2022-08-17T08:38:08.306Z,54.60
2022-08-17T08:40:49.746Z,54.36
2022-08-17T08:43:36.176Z,54.95
2022-08-17T08:46:21.874Z,54.81
2022-08-17T08:49:19.371Z,55.21
2022-08-17T08:51:57.853Z,54.96
2022-08-17T08:54:53.897Z,55.22
2022-08-17T08:57:34.089Z,55.80
2022-08-17T09:00:03.934Z,55.48
2022-08-17T09:03:08.379Z,56.49
2022-08-17T09:05:34.786Z,57.67
2022-08-17T09:08:29.586Z,56.57
2022-08-17T09:11:02.688Z,56.64
2022-08-17T09:13:55.652Z,55.97
2022-08-17T09:16:35.995Z,55.74
2022-08-17T09:19:57.003Z,56.13
2022-08-17T09:22:37.462Z,56.79
2022-08-17T09:25:12.551Z,56.29
2022-08-17T09:27:57.281Z,56.78
2022-08-17T09:30:36.215Z,58.39
2022-08-17T09:33:07.665Z,56.83
2022-08-17T09:36:02.304Z,55.81
2022-08-17T09:38:59.877Z,55.52
2022-08-17T09:41:49.560Z,56.12
2022-08-17T09:44:44.196Z,56.75
2022-08-17T09:48:01.897Z,56.19
2022-08-17T09:51:04.358Z,56.04
2022-08-17T09:53:24.119Z,56.66
2022-08-17T09:56:48.277Z,56.41
2022-08-17T09:59:38.310Z,56.56
2022-08-17T10:02:31.762Z,57.67
2022-08-17T10:05:13.539Z,56.65
2022-08-17T10:07:56.577Z,57.43
2022-08-17T10:10:36.807Z,58.06
2022-08-17T10:13:15.721Z,57.43
2022-08-17T10:16:01.220Z,57.44
2022-08-17T10:18:37.599Z,57.61
2022-08-17T10:21:34.407Z,58.75
2022-08-17T10:25:23.864Z,59.01
2022-08-17T10:27:57.628Z,58.81
2022-08-17T10:30:28.364Z,59.14
2022-08-17T10:33:01.672Z,59.71
2022-08-17T10:35:59.251Z,59.15
2022-08-17T10:38:36.388Z,59.51
2022-08-17T10:41:27.094Z,59.55
2022-08-17T10:44:40.456Z,61.20
2022-08-17T10:47:15.773Z,60.20
2022-08-17T10:49:49.608Z,60.34
2022-08-17T10:52:28.005Z,60.79
2022-08-17T10:54:57.999Z,60.91
2022-08-17T10:57:31.776Z,61.66
2022-08-17T11:00:10.189Z,61.97
2022-08-17T11:02:51.145Z,62.02
2022-08-17T11:05:40.155Z,62.33
2022-08-17T11:08:30.346Z,62.08
2022-08-17T11:11:08.713Z,61.99
2022-08-17T11:14:06.203Z,62.84
2022-08-17T11:16:38.927Z,62.30
2022-08-17T11:19:49.069Z,61.95
2022-08-17T11:22:33.362Z,61.87
2022-08-17T11:25:31.714Z,60.60
2022-08-17T11:28:08.959Z,59.02
2022-08-17T11:30:57.980Z,56.99
2022-08-17T11:33:30.393Z,55.15
2022-08-17T11:36:20.138Z,55.27
2022-08-17T11:39:02.182Z,53.84
2022-08-17T11:41:49.564Z,53.34
2022-08-17T11:44:31.225Z,51.82
2022-08-17T11:47:32.465Z,50.12
2022-08-17T11:50:27.982Z,48.24
2022-08-17T11:52:55.024Z,48.21
2022-08-17T11:55:38.225Z,49.94
2022-08-17T11:58:29.048Z,49.71
2022-08-17T12:01:00.837Z,51.06
2022-08-17T12:03:33.318Z,50.98
2022-08-17T12:06:29.632Z,51.10
2022-08-17T12:09:34.467Z,51.37
2022-08-17T12:12:14.255Z,51.50
2022-08-17T12:15:10.020Z,51.85
2022-08-17T12:17:40.716Z,52.96
2022-08-17T12:20:37.133Z,52.03
2022-08-17T12:23:08.145Z,52.66
2022-08-17T12:25:45.688Z,52.67
2022-08-17T12:28:23.865Z,53.46
2022-08-17T12:30:51.988Z,53.73
2022-08-17T12:33:25.594Z,51.92
2022-08-17T12:36:03.114Z,52.27
2022-08-17T12:38:35.193Z,53.07
2022-08-17T12:41:24.664Z,53.51
2022-08-17T12:44:13.151Z,53.70
2022-08-17T12:46:48.916Z,53.37
2022-08-17T12:49:24.203Z,53.81
2022-08-17T12:51:57.041Z,52.95
2022-08-17T12:54:31.522Z,53.02
2022-08-17T12:57:04.658Z,53.47
2022-08-17T12:59:33.073Z,53.34
2022-08-17T13:02:00.838Z,52.18
2022-08-17T13:04:29.737Z,51.91
2022-08-17T13:06:59.557Z,52.65
2022-08-17T13:09:36.051Z,53.66
2022-08-17T13:12:08.482Z,54.38
2022-08-17T13:14:35.339Z,54.50
2022-08-17T13:17:07.351Z,53.65
2022-08-17T13:19:40.945Z,52.78
2022-08-17T13:22:11.963Z,53.31
2022-08-17T13:24:38.921Z,52.94
2022-08-17T13:27:09.939Z,52.88
2022-08-17T13:29:51.623Z,54.08
2022-08-17T13:32:43.580Z,52.80
2022-08-17T13:35:39.398Z,53.15
2022-08-17T13:38:10.085Z,53.83
2022-08-17T13:40:53.001Z,54.20
2022-08-17T13:43:44.360Z,55.69
2022-08-17T13:46:19.706Z,56.99
2022-08-17T13:48:56.089Z,54.94
2022-08-17T13:51:26.721Z,55.35
2022-08-17T13:53:56.662Z,55.92
2022-08-17T13:56:40.503Z,56.17
2022-08-17T13:59:54.564Z,57.17
2022-08-17T14:02:22.680Z,57.34
2022-08-17T14:04:54.274Z,57.84
2022-08-17T14:07:27.110Z,56.23
2022-08-17T14:09:58.390Z,56.62
2022-08-17T14:12:27.284Z,55.54
2022-08-17T14:14:58.804Z,54.93
2022-08-17T14:17:28.723Z,55.33
2022-08-17T14:19:55.654Z,55.16
2022-08-17T14:22:30.359Z,55.69
2022-08-17T14:24:59.035Z,57.26
2022-08-17T14:27:27.982Z,56.77
2022-08-17T14:29:55.641Z,56.51
2022-08-17T14:32:26.575Z,57.98
2022-08-17T14:34:56.607Z,57.75
2022-08-17T14:37:27.859Z,56.57
2022-08-17T14:39:55.951Z,56.03
2022-08-17T14:42:24.679Z,55.66
2022-08-17T14:44:54.977Z,56.49
2022-08-17T14:47:21.636Z,54.56
2022-08-17T14:49:48.513Z,54.46
2022-08-17T14:52:21.575Z,54.74
2022-08-17T14:54:51.234Z,54.02
2022-08-17T14:57:33.984Z,55.26
2022-08-17T15:00:01.995Z,55.09
2022-08-17T15:02:30.823Z,55.30
2022-08-17T15:05:03.944Z,56.86
2022-08-17T15:07:31.251Z,56.77
2022-08-17T15:10:00.514Z,57.24
2022-08-17T15:12:32.283Z,57.15
2022-08-17T15:15:00.623Z,56.26
2022-08-17T15:17:27.129Z,55.62
2022-08-17T15:20:17.901Z,55.46
2022-08-17T15:22:46.784Z,55.22
2022-08-17T15:25:14.439Z,54.19
2022-08-17T15:27:41.269Z,54.18
2022-08-17T15:30:09.832Z,55.03
2022-08-17T15:32:38.451Z,55.13
2022-08-17T15:35:07.647Z,55.97
2022-08-17T15:37:34.285Z,55.84
2022-08-17T15:40:01.125Z,57.03
2022-08-17T15:42:29.251Z,56.48
2022-08-17T15:44:55.956Z,56.20
2022-08-17T15:47:22.516Z,55.37
2022-08-17T15:49:48.981Z,56.36
2022-08-17T15:52:29.810Z,56.55
2022-08-17T15:54:59.352Z,56.60
2022-08-17T15:57:27.065Z,56.49
2022-08-17T15:59:58.900Z,56.01
2022-08-17T16:03:14.084Z,56.40
2022-08-17T16:05:24.145Z,56.84
2022-08-17T16:07:51.860Z,57.76
2022-08-17T16:10:19.365Z,57.03
2022-08-17T16:12:47.952Z,56.92
2022-08-17T16:15:15.260Z,56.80
2022-08-17T16:17:42.272Z,57.79
2022-08-17T16:20:19.918Z,57.50
2022-08-17T16:22:49.735Z,58.40
2022-08-17T16:25:19.849Z,58.27
2022-08-17T16:27:48.286Z,58.68
2022-08-17T16:30:17.636Z,58.01
2022-08-17T16:32:44.647Z,58.76
2022-08-17T16:35:12.790Z,60.05
2022-08-17T16:37:40.262Z,58.78
2022-08-17T16:40:11.781Z,58.92
2022-08-17T16:42:39.637Z,58.87
2022-08-17T16:45:13.001Z,59.03
2022-08-17T16:47:40.075Z,59.24
2022-08-17T16:50:08.263Z,59.63
2022-08-17T16:52:35.252Z,59.43
2022-08-17T16:55:03.740Z,58.79
2022-08-17T16:57:30.307Z,58.89
2022-08-17T16:59:56.978Z,59.02
2022-08-17T17:02:38.074Z,58.46
2022-08-17T17:05:25.189Z,59.80
2022-08-17T17:08:16.214Z,58.55
2022-08-17T17:10:47.564Z,59.13
2022-08-17T17:13:32.180Z,59.90
2022-08-17T17:16:00.622Z,60.12
2022-08-17T17:19:03.150Z,60.17
2022-08-17T17:21:47.341Z,59.61
2022-08-17T17:24:21.269Z,59.73
2022-08-17T17:26:55.368Z,60.08
2022-08-17T17:29:24.857Z,60.03
2022-08-17T17:32:13.686Z,59.92
2022-08-17T17:34:50.869Z,59.96
2022-08-17T17:37:27.283Z,59.78
2022-08-17T17:39:57.634Z,59.59
2022-08-17T17:42:31.456Z,59.22
2022-08-17T17:45:04.670Z,59.75
2022-08-17T17:47:31.842Z,59.82
2022-08-17T17:50:01.324Z,59.75
2022-08-17T17:52:36.684Z,60.09
2022-08-17T17:55:18.224Z,60.11
2022-08-17T17:57:57.783Z,60.43
2022-08-17T18:00:39.141Z,60.96
2022-08-17T18:03:22.303Z,61.08
2022-08-17T18:06:24.192Z,62.99
2022-08-17T18:09:02.603Z,62.31
2022-08-17T18:11:59.008Z,63.23
2022-08-17T18:14:45.578Z,63.43
2022-08-17T18:17:12.548Z,64.26
2022-08-17T18:19:39.793Z,64.74
2022-08-17T18:22:14.176Z,65.07
2022-08-17T18:24:44.194Z,65.47
2022-08-17T18:27:28.637Z,66.21
2022-08-17T18:29:57.349Z,66.20
2022-08-17T18:32:46.290Z,66.76
2022-08-17T18:35:14.174Z,66.78
2022-08-17T18:37:52.131Z,66.51
2022-08-17T18:40:21.501Z,66.71
2022-08-17T18:43:06.510Z,66.72
2022-08-17T18:45:44.559Z,67.67
2022-08-17T18:48:36.517Z,68.21
2022-08-17T18:51:41.461Z,68.51
2022-08-17T18:54:24.753Z,69.28
2022-08-17T18:56:53.445Z,69.42
2022-08-17T18:59:26.970Z,70.13
2022-08-17T19:01:58.457Z,70.13
2022-08-17T19:04:55.678Z,70.80
2022-08-17T19:07:24.945Z,71.50
2022-08-17T19:10:11.248Z,71.75
2022-08-17T19:12:46.090Z,72.20
2022-08-17T19:15:14.762Z,72.78
2022-08-17T19:17:51.319Z,72.40
2022-08-17T19:20:34.557Z,72.38
2022-08-17T19:23:16.933Z,72.30
2022-08-17T19:25:48.445Z,72.62
2022-08-17T19:28:38.452Z,73.42
2022-08-17T19:31:16.307Z,73.17
2022-08-17T19:33:43.087Z,72.98
2022-08-17T19:36:21.440Z,72.95
2022-08-17T19:38:59.270Z,73.08
2022-08-17T19:41:46.518Z,74.22
2022-08-17T19:44:40.441Z,74.95
2022-08-17T19:47:36.198Z,74.81
2022-08-17T19:50:14.007Z,75.11
2022-08-17T19:52:49.231Z,75.85
2022-08-17T19:55:20.731Z,75.79
2022-08-17T19:57:56.061Z,75.87
2022-08-17T20:00:22.691Z,76.20
2022-08-17T20:03:06.361Z,76.86
2022-08-17T20:06:01.372Z,76.84
2022-08-17T20:08:27.145Z,76.34
2022-08-17T20:10:58.468Z,76.53
2022-08-17T20:13:33.543Z,76.65
2022-08-17T20:16:01.867Z,77.00
2022-08-17T20:18:34.247Z,77.30
2022-08-17T20:21:20.171Z,77.35
2022-08-17T20:23:57.320Z,77.95
2022-08-17T20:26:30.239Z,77.38
2022-08-17T20:29:37.206Z,77.53
2022-08-17T20:32:14.916Z,78.56
2022-08-17T20:34:46.368Z,78.06
2022-08-17T20:37:12.729Z,77.98
2022-08-17T20:39:43.038Z,77.96
2022-08-17T20:42:15.531Z,77.91
2022-08-17T20:44:43.000Z,78.27
2022-08-17T20:47:12.155Z,78.17
2022-08-17T20:49:50.237Z,78.01
2022-08-17T20:52:50.671Z,77.99
2022-08-17T20:55:35.525Z,78.57
2022-08-17T20:58:24.287Z,79.13
2022-08-17T21:00:57.070Z,79.32
2022-08-17T21:03:23.572Z,79.72
2022-08-17T21:06:11.098Z,79.18
2022-08-17T21:09:16.185Z,79.24
2022-08-17T21:12:03.775Z,79.57
2022-08-17T21:15:01.749Z,79.36
2022-08-17T21:17:48.277Z,79.50
2022-08-17T21:20:27.547Z,79.48
2022-08-17T21:23:21.658Z,79.43
2022-08-17T21:26:04.982Z,79.44
2022-08-17T21:29:00.578Z,79.67
2022-08-17T21:31:35.602Z,79.60
2022-08-17T21:34:20.915Z,79.76
2022-08-17T21:36:48.437Z,80.15
2022-08-17T21:39:19.373Z,79.78
2022-08-17T21:41:53.589Z,79.99
2022-08-17T21:44:30.564Z,80.43
2022-08-17T21:47:13.856Z,80.36
2022-08-17T21:49:40.466Z,80.86
2022-08-17T21:52:07.585Z,80.34
2022-08-17T21:54:38.772Z,80.23
2022-08-17T21:57:15.319Z,80.52
2022-08-17T21:59:43.586Z,80.29
2022-08-17T22:02:24.071Z,79.86
2022-08-17T22:05:02.819Z,80.14
2022-08-17T22:07:48.517Z,80.25
2022-08-17T22:10:41.241Z,80.14
2022-08-17T22:13:17.486Z,80.27
2022-08-17T22:15:47.903Z,80.38
2022-08-17T22:18:19.907Z,80.34
2022-08-17T22:20:51.765Z,80.74
2022-08-17T22:23:51.297Z,80.68
2022-08-17T22:26:19.799Z,80.53
2022-08-17T22:28:49.715Z,80.68
2022-08-17T22:31:24.438Z,80.74
2022-08-17T22:33:59.987Z,80.75
2022-08-17T22:36:32.505Z,80.93
2022-08-17T22:39:23.067Z,80.79
2022-08-17T22:41:59.401Z,80.77
2022-08-17T22:44:29.442Z,81.06
2022-08-17T22:47:13.980Z,81.25
2022-08-17T22:49:54.222Z,81.35
2022-08-17T22:52:34.999Z,81.56
2022-08-17T22:55:31.109Z,81.32
2022-08-17T22:58:16.503Z,80.84
2022-08-17T23:00:45.880Z,81.83
2022-08-17T23:03:22.228Z,81.93
2022-08-17T23:06:10.716Z,82.04
2022-08-17T23:08:54.636Z,81.95
2022-08-17T23:11:36.892Z,81.43
2022-08-17T23:14:15.571Z,81.31
2022-08-17T23:16:42.701Z,81.25
2022-08-17T23:19:10.569Z,82.11
2022-08-17T23:21:37.389Z,82.40
2022-08-17T23:24:08.827Z,81.87
2022-08-17T23:26:37.988Z,81.64
2022-08-17T23:29:06.450Z,82.76
2022-08-17T23:31:34.705Z,82.30
2022-08-17T23:34:03.012Z,82.17
2022-08-17T23:36:31.499Z,81.91
2022-08-17T23:38:57.957Z,81.74
2022-08-17T23:41:28.097Z,82.22
2022-08-17T23:43:55.320Z,81.97
2022-08-17T23:46:25.052Z,81.88
2022-08-17T23:48:54.173Z,82.35
2022-08-17T23:51:25.118Z,82.32
2022-08-17T23:53:55.777Z,82.52
2022-08-17T23:56:25.734Z,82.23
2022-08-17T23:58:54.846Z,82.83
